createdAt,value
2017-01-11T00:00:58.229Z,1012.72
2017-01-11T00:02:07.145Z,1012.67
2017-01-11T00:03:16.064Z,1012.65
2017-01-11T00:04:25.023Z,1012.67
2017-01-11T00:05:33.949Z,1012.64
2017-01-11T00:06:42.870Z,1012.66
2017-01-11T00:07:51.806Z,1012.62
2017-01-11T00:09:00.718Z,1012.59
2017-01-11T00:10:09.642Z,1012.54
2017-01-11T00:11:18.577Z,1012.52
2017-01-11T00:12:27.509Z,1012.52
2017-01-11T00:13:36.445Z,1012.47
2017-01-11T00:14:45.378Z,1012.5
2017-01-11T00:15:54.295Z,1012.49
2017-01-11T00:17:03.246Z,1012.49
2017-01-11T00:18:12.172Z,1012.51
2017-01-11T00:19:21.109Z,1012.5
2017-01-11T00:20:30.042Z,1012.52
2017-01-11T00:21:38.956Z,1012.53
2017-01-11T00:22:47.871Z,1012.52
2017-01-11T00:23:56.796Z,1012.51
2017-01-11T00:25:05.730Z,1012.51
2017-01-11T00:26:14.646Z,1012.49
2017-01-11T00:27:23.579Z,1012.49
2017-01-11T00:28:32.498Z,1012.46
2017-01-11T00:29:41.457Z,1012.44
2017-01-11T00:30:50.379Z,1012.45
2017-01-11T00:31:59.309Z,1012.46
2017-01-11T00:33:08.234Z,1012.43
2017-01-11T00:34:17.163Z,1012.42
2017-01-11T00:35:26.093Z,1012.41
2017-01-11T00:36:35.016Z,1012.44
2017-01-11T00:37:43.942Z,1012.44
2017-01-11T00:38:52.863Z,1012.44
2017-01-11T00:40:01.792Z,1012.44
2017-01-11T00:41:10.718Z,1012.47
2017-01-11T00:42:19.670Z,1012.46
2017-01-11T00:43:28.597Z,1012.44
2017-01-11T00:44:37.511Z,1012.4
2017-01-11T00:45:46.440Z,1012.41
2017-01-11T00:46:55.373Z,1012.39
2017-01-11T00:48:04.291Z,1012.37
2017-01-11T00:49:13.211Z,1012.36
2017-01-11T00:50:22.136Z,1012.35
2017-01-11T00:51:31.052Z,1012.37
2017-01-11T00:52:39.985Z,1012.34
2017-01-11T00:53:48.909Z,1012.34
2017-01-11T00:54:57.828Z,1012.33
2017-01-11T00:56:06.757Z,1012.35
2017-01-11T00:57:15.713Z,1012.38
2017-01-11T00:58:24.641Z,1012.41
2017-01-11T00:59:33.591Z,1012.33
2017-01-11T01:00:42.519Z,1012.36
2017-01-11T01:01:51.437Z,1012.37
2017-01-11T01:03:00.366Z,1012.33
2017-01-11T01:04:09.289Z,1012.32
2017-01-11T01:05:18.209Z,1012.26
2017-01-11T01:06:27.161Z,1012.25
2017-01-11T01:07:36.083Z,1012.26
2017-01-11T01:08:45.014Z,1012.21
2017-01-11T01:09:53.931Z,1012.22
2017-01-11T01:11:02.872Z,1012.21
2017-01-11T01:12:11.795Z,1012.21
2017-01-11T01:13:20.724Z,1012.21
2017-01-11T01:14:29.656Z,1012.16
2017-01-11T01:15:38.591Z,1012.2
2017-01-11T01:16:47.516Z,1012.19
2017-01-11T01:17:56.433Z,1012.19
2017-01-11T01:19:05.353Z,1012.16
2017-01-11T01:20:14.282Z,1012.24
2017-01-11T01:21:23.213Z,1012.21
2017-01-11T01:22:32.188Z,1012.26
2017-01-11T01:23:41.556Z,1012.23
2017-01-11T01:24:50.484Z,1012.23
2017-01-11T01:25:59.413Z,1012.28
2017-01-11T01:27:08.346Z,1012.19
2017-01-11T01:28:17.272Z,1012.2
2017-01-11T01:29:26.193Z,1012.21
2017-01-11T01:30:35.115Z,1012.22
2017-01-11T01:31:44.051Z,1012.29
2017-01-11T01:32:52.973Z,1012.29
2017-01-11T01:34:01.894Z,1012.33
2017-01-11T01:35:10.823Z,1012.29
2017-01-11T01:36:19.744Z,1012.31
2017-01-11T01:37:28.671Z,1012.35
2017-01-11T01:38:37.596Z,1012.34
2017-01-11T01:39:46.524Z,1012.4
2017-01-11T01:40:55.448Z,1012.37
2017-01-11T01:42:04.370Z,1012.41
2017-01-11T01:43:13.291Z,1012.36
2017-01-11T01:44:22.212Z,1012.39
2017-01-11T01:45:31.156Z,1012.37
2017-01-11T01:46:40.075Z,1012.36
2017-01-11T01:47:49.000Z,1012.33
2017-01-11T01:48:57.929Z,1012.33
2017-01-11T01:50:06.852Z,1012.36
2017-01-11T01:51:15.772Z,1012.35
2017-01-11T01:52:24.705Z,1012.38
2017-01-11T01:53:34.582Z,1012.3
2017-01-11T01:54:43.500Z,1012.37
2017-01-11T01:55:52.421Z,1012.39
2017-01-11T01:57:01.357Z,1012.41
2017-01-11T01:58:10.287Z,1012.44
2017-01-11T01:59:19.209Z,1012.45
2017-01-11T02:00:28.121Z,1012.46
2017-01-11T02:01:37.046Z,1012.48
2017-01-11T02:02:45.978Z,1012.4
2017-01-11T02:03:54.931Z,1012.31
2017-01-11T02:05:03.845Z,1012.27
2017-01-11T02:06:12.787Z,1012.3
2017-01-11T02:07:21.700Z,1012.24
2017-01-11T02:08:30.651Z,1012.22
2017-01-11T02:09:39.566Z,1012.23
2017-01-11T02:10:48.490Z,1012.23
2017-01-11T02:11:57.415Z,1012.14
2017-01-11T02:13:06.349Z,1012.15
2017-01-11T02:14:15.281Z,1012.06
2017-01-11T02:15:24.207Z,1012.05
2017-01-11T02:16:33.133Z,1012.03
2017-01-11T02:17:42.045Z,1012.01
2017-01-11T02:18:50.977Z,1012.05
2017-01-11T02:19:59.897Z,1012
2017-01-11T02:21:08.826Z,1011.97
2017-01-11T02:22:17.749Z,1011.98
2017-01-11T02:23:26.670Z,1012.02
2017-01-11T02:24:35.589Z,1012.03
2017-01-11T02:25:44.497Z,1012.01
2017-01-11T02:26:53.435Z,1011.99
2017-01-11T02:28:02.379Z,1012.09
2017-01-11T02:29:11.289Z,1012.07
2017-01-11T02:30:20.234Z,1012.09
2017-01-11T02:31:29.170Z,1012.11
2017-01-11T02:32:38.096Z,1012.16
2017-01-11T02:33:47.026Z,1012.13
2017-01-11T02:34:55.952Z,1012.12
2017-01-11T02:36:04.867Z,1012.14
2017-01-11T02:37:13.782Z,1012.11
2017-01-11T02:38:22.715Z,1012.16
2017-01-11T02:39:31.637Z,1012.22
2017-01-11T02:40:40.571Z,1012.23
2017-01-11T02:41:49.489Z,1012.31
2017-01-11T02:42:58.421Z,1012.35
2017-01-11T02:44:07.344Z,1012.37
2017-01-11T02:45:16.383Z,1012.37
2017-01-11T02:46:25.305Z,1012.38
2017-01-11T02:47:34.238Z,1012.36
2017-01-11T02:48:43.187Z,1012.26
2017-01-11T02:49:52.104Z,1012.19
2017-01-11T02:51:01.038Z,1012.22
2017-01-11T02:52:09.967Z,1012.19
2017-01-11T02:53:18.889Z,1012.21
2017-01-11T02:54:27.853Z,1012.26
2017-01-11T02:55:36.765Z,1012.17
2017-01-11T02:56:45.687Z,1012.12
2017-01-11T02:57:54.611Z,1012.04
2017-01-11T02:59:03.543Z,1011.98
2017-01-11T03:00:12.465Z,1012.01
2017-01-11T03:01:21.396Z,1011.97
2017-01-11T03:02:30.311Z,1011.95
2017-01-11T03:03:39.244Z,1011.97
2017-01-11T03:04:48.196Z,1011.9
2017-01-11T03:05:57.115Z,1011.86
2017-01-11T03:07:06.039Z,1011.8
2017-01-11T03:08:14.960Z,1011.71
2017-01-11T03:09:23.879Z,1011.71
2017-01-11T03:10:32.837Z,1011.63
2017-01-11T03:11:41.771Z,1011.66
2017-01-11T03:12:50.682Z,1011.69
2017-01-11T03:13:59.600Z,1011.68
2017-01-11T03:15:08.910Z,1011.75
2017-01-11T03:16:17.841Z,1011.79
2017-01-11T03:17:26.779Z,1011.74
2017-01-11T03:18:35.697Z,1011.79
2017-01-11T03:19:44.617Z,1011.7
2017-01-11T03:20:53.528Z,1011.66
2017-01-11T03:22:02.453Z,1011.57
2017-01-11T03:23:11.366Z,1011.52
2017-01-11T03:24:20.290Z,1011.42
2017-01-11T03:25:29.210Z,1011.37
2017-01-11T03:26:38.128Z,1011.33
2017-01-11T03:27:47.060Z,1011.35
2017-01-11T03:28:55.986Z,1011.35
2017-01-11T03:30:04.905Z,1011.29
2017-01-11T03:31:13.827Z,1011.26
2017-01-11T03:32:22.745Z,1011.25
2017-01-11T03:33:31.659Z,1011.22
2017-01-11T03:34:40.572Z,1011.2
2017-01-11T03:35:49.494Z,1011.27
2017-01-11T03:36:58.451Z,1011.24
2017-01-11T03:38:07.377Z,1011.23
2017-01-11T03:39:16.310Z,1011.21
2017-01-11T03:40:25.232Z,1011.26
2017-01-11T03:41:34.151Z,1011.22
2017-01-11T03:42:43.081Z,1011.26
2017-01-11T03:43:52.011Z,1011.29
2017-01-11T03:45:00.930Z,1011.35
2017-01-11T03:46:09.854Z,1011.29
2017-01-11T03:47:18.774Z,1011.29
2017-01-11T03:48:27.696Z,1011.26
2017-01-11T03:49:36.618Z,1011.27
2017-01-11T03:50:45.547Z,1011.29
2017-01-11T03:51:54.477Z,1011.29
2017-01-11T03:53:03.407Z,1011.36
2017-01-11T03:54:12.332Z,1011.35
2017-01-11T03:55:21.251Z,1011.27
2017-01-11T03:56:30.189Z,1011.32
2017-01-11T03:57:39.103Z,1011.33
2017-01-11T03:58:48.040Z,1011.24
2017-01-11T03:59:56.994Z,1011.19
2017-01-11T04:01:05.921Z,1011.19
2017-01-11T04:02:14.851Z,1011.25
2017-01-11T04:03:23.777Z,1011.24
2017-01-11T04:04:32.694Z,1011.2
2017-01-11T04:05:41.629Z,1011.19
2017-01-11T04:06:50.562Z,1011.22
2017-01-11T04:07:59.509Z,1011.24
2017-01-11T04:09:08.443Z,1011.19
2017-01-11T04:10:17.359Z,1011.16
2017-01-11T04:11:26.294Z,1011.14
2017-01-11T04:12:35.220Z,1011.06
2017-01-11T04:13:44.152Z,1011.02
2017-01-11T04:14:53.067Z,1010.98
2017-01-11T04:16:01.978Z,1010.95
2017-01-11T04:17:10.914Z,1010.98
2017-01-11T04:18:19.832Z,1010.95
2017-01-11T04:19:28.757Z,1010.98
2017-01-11T04:20:37.708Z,1010.95
2017-01-11T04:21:46.648Z,1010.89
2017-01-11T04:22:55.564Z,1010.83
2017-01-11T04:24:04.508Z,1010.73
2017-01-11T04:25:13.438Z,1010.68
2017-01-11T04:26:22.353Z,1010.61
2017-01-11T04:27:31.266Z,1010.54
2017-01-11T04:28:40.191Z,1010.52
2017-01-11T04:29:49.115Z,1010.47
2017-01-11T04:30:58.044Z,1010.45
2017-01-11T04:32:06.968Z,1010.42
2017-01-11T04:33:15.888Z,1010.45
2017-01-11T04:34:24.799Z,1010.45
2017-01-11T04:35:33.724Z,1010.46
2017-01-11T04:36:42.648Z,1010.47
2017-01-11T04:37:51.565Z,1010.52
2017-01-11T04:39:00.488Z,1010.52
2017-01-11T04:40:09.403Z,1010.59
2017-01-11T04:41:18.328Z,1010.49
2017-01-11T04:42:27.284Z,1010.52
2017-01-11T04:43:36.234Z,1010.42
2017-01-11T04:44:45.151Z,1010.37
2017-01-11T04:45:54.084Z,1010.41
2017-01-11T04:47:03.007Z,1010.35
2017-01-11T04:48:11.926Z,1010.35
2017-01-11T04:49:20.855Z,1010.3
2017-01-11T04:50:29.776Z,1010.18
2017-01-11T04:51:38.701Z,1010.17
2017-01-11T04:52:47.616Z,1010.17
2017-01-11T04:53:56.570Z,1010.17
2017-01-11T04:55:05.493Z,1010.16
2017-01-11T04:56:14.418Z,1010.21
2017-01-11T04:57:23.362Z,1010.21
2017-01-11T04:58:32.303Z,1010.17
2017-01-11T04:59:41.237Z,1010.19
2017-01-11T05:00:50.154Z,1010.19
2017-01-11T05:01:59.085Z,1010.14
2017-01-11T05:03:07.998Z,1010.13
2017-01-11T05:04:16.914Z,1010.02
2017-01-11T05:05:25.841Z,1010.02
2017-01-11T05:06:34.778Z,1010.05
2017-01-11T05:07:43.712Z,1010.04
2017-01-11T05:08:52.630Z,1010
2017-01-11T05:10:01.554Z,1009.99
2017-01-11T05:11:10.501Z,1009.95
2017-01-11T05:12:19.434Z,1009.9
2017-01-11T05:13:28.394Z,1009.88
2017-01-11T05:14:37.325Z,1009.79
2017-01-11T05:15:46.241Z,1009.76
2017-01-11T05:16:55.157Z,1009.77
2017-01-11T05:18:04.082Z,1009.69
2017-01-11T05:19:13.006Z,1009.68
2017-01-11T05:20:21.930Z,1009.63
2017-01-11T05:21:30.854Z,1009.71
2017-01-11T05:22:39.781Z,1009.61
2017-01-11T05:23:48.740Z,1009.69
2017-01-11T05:24:57.653Z,1009.69
2017-01-11T05:26:06.570Z,1009.74
2017-01-11T05:27:15.482Z,1009.8
2017-01-11T05:28:24.415Z,1009.76
2017-01-11T05:29:33.339Z,1009.78
2017-01-11T05:30:42.263Z,1009.86
2017-01-11T05:31:51.187Z,1009.89
2017-01-11T05:33:00.107Z,1009.91
2017-01-11T05:34:09.046Z,1009.97
2017-01-11T05:35:17.961Z,1010.05
2017-01-11T05:36:26.902Z,1010.08
2017-01-11T05:37:35.822Z,1010.07
2017-01-11T05:38:44.736Z,1010.1
2017-01-11T05:39:53.659Z,1010.08
2017-01-11T05:41:02.581Z,1010.09
2017-01-11T05:42:11.504Z,1010.08
2017-01-11T05:43:20.443Z,1010.06
2017-01-11T05:44:29.361Z,1009.98
2017-01-11T05:45:38.268Z,1009.92
2017-01-11T05:46:47.201Z,1009.9
2017-01-11T05:47:56.118Z,1009.86
2017-01-11T05:49:05.038Z,1009.81
2017-01-11T05:50:13.956Z,1009.79
2017-01-11T05:51:22.887Z,1009.7
2017-01-11T05:52:31.817Z,1009.58
2017-01-11T05:53:40.746Z,1009.53
2017-01-11T05:54:49.674Z,1009.46
2017-01-11T05:55:58.587Z,1009.41
2017-01-11T05:57:07.506Z,1009.37
2017-01-11T05:58:16.432Z,1009.21
2017-01-11T05:59:25.351Z,1009.13
2017-01-11T06:00:34.281Z,1009.12
2017-01-11T06:01:43.210Z,1009.08
2017-01-11T06:02:52.166Z,1009.11
2017-01-11T06:04:01.091Z,1009.1
2017-01-11T06:05:10.009Z,1009.08
2017-01-11T06:06:18.936Z,1009.06
2017-01-11T06:07:27.862Z,1009.14
2017-01-11T06:08:36.807Z,1009.12
2017-01-11T06:09:45.721Z,1009.13
2017-01-11T06:10:54.663Z,1009.16
2017-01-11T06:12:03.591Z,1009.14
2017-01-11T06:13:12.517Z,1009.19
2017-01-11T06:14:21.429Z,1009.23
2017-01-11T06:15:30.368Z,1009.2
2017-01-11T06:16:39.282Z,1009.19
2017-01-11T06:17:48.200Z,1009.17
2017-01-11T06:18:57.131Z,1009.16
2017-01-11T06:20:06.058Z,1009.17
2017-01-11T06:21:14.991Z,1009.1
2017-01-11T06:22:23.913Z,1009.16
2017-01-11T06:23:32.829Z,1009.09
2017-01-11T06:24:41.752Z,1009.11
2017-01-11T06:25:50.699Z,1009.05
2017-01-11T06:26:59.616Z,1009.04
2017-01-11T06:28:08.530Z,1008.92
2017-01-11T06:29:17.462Z,1008.95
2017-01-11T06:30:26.370Z,1008.82
2017-01-11T06:31:35.295Z,1008.83
2017-01-11T06:32:44.221Z,1008.68
2017-01-11T06:33:53.149Z,1008.59
2017-01-11T06:35:02.070Z,1008.54
2017-01-11T06:36:10.997Z,1008.55
2017-01-11T06:37:19.921Z,1008.52
2017-01-11T06:38:28.844Z,1008.56
2017-01-11T06:39:37.777Z,1008.49
2017-01-11T06:40:46.707Z,1008.45
2017-01-11T06:41:55.638Z,1008.39
2017-01-11T06:43:04.552Z,1008.42
2017-01-11T06:44:13.485Z,1008.42
2017-01-11T06:45:22.412Z,1008.53
2017-01-11T06:46:31.338Z,1008.61
2017-01-11T06:47:40.264Z,1008.64
2017-01-11T06:48:49.197Z,1008.67
2017-01-11T06:49:58.117Z,1008.69
2017-01-11T06:51:07.045Z,1008.71
2017-01-11T06:52:16.471Z,1008.69
2017-01-11T06:53:25.421Z,1008.79
2017-01-11T06:54:34.353Z,1008.8
2017-01-11T06:55:43.291Z,1008.79
2017-01-11T06:56:52.207Z,1008.76
2017-01-11T06:58:01.149Z,1008.73
2017-01-11T06:59:10.074Z,1008.74
2017-01-11T07:00:18.988Z,1008.69
2017-01-11T07:01:27.900Z,1008.69
2017-01-11T07:02:36.831Z,1008.71
2017-01-11T07:03:45.760Z,1008.72
2017-01-11T07:04:54.696Z,1008.71
2017-01-11T07:06:03.626Z,1008.87
2017-01-11T07:07:12.544Z,1008.75
2017-01-11T07:08:21.470Z,1008.73
2017-01-11T07:09:30.399Z,1008.77
2017-01-11T07:10:39.348Z,1008.7
2017-01-11T07:11:48.281Z,1008.69
2017-01-11T07:12:57.201Z,1008.69
2017-01-11T07:14:06.135Z,1008.6
2017-01-11T07:15:15.104Z,1008.65
2017-01-11T07:16:24.038Z,1008.61
2017-01-11T07:17:33.058Z,1008.58
2017-01-11T07:18:42.761Z,1008.58
2017-01-11T07:19:51.756Z,1008.55
2017-01-11T07:21:00.743Z,1008.59
2017-01-11T07:22:09.667Z,1008.54
2017-01-11T07:23:18.995Z,1008.58
2017-01-11T07:24:27.934Z,1008.58
2017-01-11T07:25:36.854Z,1008.53
2017-01-11T07:26:45.791Z,1008.59
2017-01-11T07:27:54.714Z,1008.62
2017-01-11T07:29:03.654Z,1008.6
2017-01-11T07:30:12.571Z,1008.57
2017-01-11T07:31:21.539Z,1008.48
2017-01-11T07:32:30.593Z,1008.47
2017-01-11T07:33:40.143Z,1008.45
2017-01-11T07:34:49.063Z,1008.48
2017-01-11T07:35:58.066Z,1008.63
2017-01-11T07:37:07.004Z,1008.7
2017-01-11T07:38:15.925Z,1008.71
2017-01-11T07:39:24.850Z,1008.67
2017-01-11T07:40:33.782Z,1008.56
2017-01-11T07:41:43.053Z,1008.52
2017-01-11T07:42:51.985Z,1008.56
2017-01-11T07:44:00.917Z,1008.55
2017-01-11T07:45:10.511Z,1008.57
2017-01-11T07:46:19.434Z,1008.52
2017-01-11T07:47:28.368Z,1008.51
2017-01-11T07:48:37.290Z,1008.5
2017-01-11T07:49:46.245Z,1008.42
2017-01-11T07:50:55.162Z,1008.43
2017-01-11T07:52:04.096Z,1008.46
2017-01-11T07:53:13.033Z,1008.43
2017-01-11T07:54:21.962Z,1008.41
2017-01-11T07:55:30.899Z,1008.45
2017-01-11T07:56:39.840Z,1008.47
2017-01-11T07:57:48.774Z,1008.45
2017-01-11T07:58:57.698Z,1008.46
2017-01-11T08:00:06.614Z,1008.44
2017-01-11T08:01:15.534Z,1008.39
2017-01-11T08:02:24.478Z,1008.5
2017-01-11T08:03:33.398Z,1008.41
2017-01-11T08:04:42.328Z,1008.56
2017-01-11T08:05:51.317Z,1008.51
2017-01-11T08:07:01.955Z,1008.51
2017-01-11T08:08:10.873Z,1008.41
2017-01-11T08:09:19.807Z,1008.36
2017-01-11T08:10:28.743Z,1008.3
2017-01-11T08:11:37.679Z,1008.32
2017-01-11T08:12:46.615Z,1008.29
2017-01-11T08:13:55.543Z,1008.28
2017-01-11T08:15:04.495Z,1008.22
2017-01-11T08:16:13.431Z,1008.27
2017-01-11T08:17:22.371Z,1008.41
2017-01-11T08:18:31.296Z,1008.41
2017-01-11T08:19:40.221Z,1008.41
2017-01-11T08:20:49.138Z,1008.42
2017-01-11T08:21:58.077Z,1008.33
2017-01-11T08:23:07.008Z,1008.25
2017-01-11T08:24:15.944Z,1008.22
2017-01-11T08:25:24.871Z,1008.09
2017-01-11T08:26:33.801Z,1008.05
2017-01-11T08:27:42.728Z,1007.98
2017-01-11T08:28:51.656Z,1007.81
2017-01-11T08:30:00.596Z,1007.8
2017-01-11T08:31:09.522Z,1007.81
2017-01-11T08:32:18.454Z,1007.71
2017-01-11T08:33:27.386Z,1007.66
2017-01-11T08:34:36.349Z,1007.63
2017-01-11T08:35:45.276Z,1007.62
2017-01-11T08:36:54.219Z,1007.67
2017-01-11T08:38:03.167Z,1007.62
2017-01-11T08:39:12.083Z,1007.51
2017-01-11T08:40:21.017Z,1007.45
2017-01-11T08:41:29.931Z,1007.43
2017-01-11T08:42:38.866Z,1007.45
2017-01-11T08:43:47.787Z,1007.37
2017-01-11T08:44:56.772Z,1007.36
2017-01-11T08:46:06.097Z,1007.38
2017-01-11T08:47:17.937Z,1007.38
2017-01-11T08:48:26.879Z,1007.34
2017-01-11T08:49:35.835Z,1007.21
2017-01-11T08:50:44.768Z,1007.1
2017-01-11T08:51:53.692Z,1007.07
2017-01-11T08:53:03.132Z,1007.03
2017-01-11T08:54:12.066Z,1007.05
2017-01-11T08:55:23.161Z,1007.08
2017-01-11T08:56:32.842Z,1007.14
2017-01-11T08:57:41.922Z,1007.01
2017-01-11T08:58:50.916Z,1006.96
2017-01-11T08:59:59.840Z,1006.86
2017-01-11T09:01:08.784Z,1006.85
2017-01-11T09:02:17.707Z,1006.72
2017-01-11T09:03:26.630Z,1006.71
2017-01-11T09:04:35.570Z,1006.7
2017-01-11T09:05:44.502Z,1006.49
2017-01-11T09:06:53.433Z,1006.41
2017-01-11T09:08:02.382Z,1006.3
2017-01-11T09:09:11.330Z,1006.28
2017-01-11T09:10:20.264Z,1006.24
2017-01-11T09:11:29.192Z,1006.44
2017-01-11T09:12:38.126Z,1006.49
2017-01-11T09:13:47.048Z,1006.63
2017-01-11T09:14:55.971Z,1006.71
2017-01-11T09:16:04.908Z,1006.87
2017-01-11T09:17:13.886Z,1006.9
2017-01-11T09:18:22.834Z,1006.81
2017-01-11T09:19:31.765Z,1006.71
2017-01-11T09:20:40.707Z,1006.65
2017-01-11T09:21:49.640Z,1006.65
2017-01-11T09:22:58.571Z,1006.64
2017-01-11T09:24:07.500Z,1006.6
2017-01-11T09:25:16.431Z,1006.62
2017-01-11T09:26:25.372Z,1006.56
2017-01-11T09:27:34.313Z,1006.58
2017-01-11T09:28:43.246Z,1006.44
2017-01-11T09:29:52.182Z,1006.44
2017-01-11T09:31:01.120Z,1006.44
2017-01-11T09:32:10.047Z,1006.35
2017-01-11T09:33:18.975Z,1006.42
2017-01-11T09:34:27.950Z,1006.36
2017-01-11T09:35:36.876Z,1006.26
2017-01-11T09:36:46.064Z,1006.17
2017-01-11T09:37:54.991Z,1006.08
2017-01-11T09:39:03.914Z,1006
2017-01-11T09:40:12.851Z,1005.97
2017-01-11T09:41:21.775Z,1005.89
2017-01-11T09:42:30.708Z,1006.03
2017-01-11T09:43:39.650Z,1005.87
2017-01-11T09:44:48.570Z,1005.87
2017-01-11T09:45:57.511Z,1005.92
2017-01-11T09:47:06.445Z,1005.8
2017-01-11T09:48:15.385Z,1005.74
2017-01-11T09:49:24.323Z,1005.68
2017-01-11T09:50:33.251Z,1005.62
2017-01-11T09:51:42.168Z,1005.56
2017-01-11T09:52:51.099Z,1005.5
2017-01-11T09:54:00.042Z,1005.48
2017-01-11T09:55:08.968Z,1005.48
2017-01-11T09:56:17.898Z,1005.42
2017-01-11T09:57:26.825Z,1005.38
2017-01-11T09:58:35.750Z,1005.44
2017-01-11T09:59:44.686Z,1005.39
2017-01-11T10:00:53.620Z,1005.33
2017-01-11T10:02:02.703Z,1005.29
2017-01-11T10:03:11.653Z,1005.2
2017-01-11T10:04:20.757Z,1005.2
2017-01-11T10:05:29.700Z,1005.11
2017-01-11T10:06:38.649Z,1005.09
2017-01-11T10:07:47.591Z,1004.9
2017-01-11T10:08:56.533Z,1004.93
2017-01-11T10:10:05.498Z,1004.86
2017-01-11T10:11:14.425Z,1004.92
2017-01-11T10:12:23.367Z,1004.82
2017-01-11T10:13:32.310Z,1004.76
2017-01-11T10:14:41.252Z,1004.75
2017-01-11T10:15:50.219Z,1004.75
2017-01-11T10:16:59.142Z,1004.57
2017-01-11T10:18:08.082Z,1004.5
2017-01-11T10:19:17.009Z,1004.46
2017-01-11T10:20:26.094Z,1004.41
2017-01-11T10:21:35.034Z,1004.32
2017-01-11T10:22:43.989Z,1004.41
2017-01-11T10:23:52.918Z,1004.45
2017-01-11T10:25:01.853Z,1004.38
2017-01-11T10:26:10.797Z,1004.36
2017-01-11T10:27:19.718Z,1004.31
2017-01-11T10:28:28.649Z,1004.28
2017-01-11T10:29:37.586Z,1004.32
2017-01-11T10:30:46.520Z,1004.42
2017-01-11T10:31:55.464Z,1004.35
2017-01-11T10:33:04.484Z,1004.25
2017-01-11T10:34:13.408Z,1004.16
2017-01-11T10:35:22.331Z,1004.1
2017-01-11T10:36:31.263Z,1003.92
2017-01-11T10:37:40.201Z,1003.88
2017-01-11T10:38:49.148Z,1003.85
2017-01-11T10:39:58.070Z,1003.82
2017-01-11T10:41:07.041Z,1003.8
2017-01-11T10:42:15.978Z,1003.76
2017-01-11T10:43:24.906Z,1003.75
2017-01-11T10:44:33.839Z,1003.79
2017-01-11T10:45:42.782Z,1003.8
2017-01-11T10:46:51.708Z,1003.86
2017-01-11T10:48:00.634Z,1003.71
2017-01-11T10:49:09.575Z,1003.68
2017-01-11T10:50:18.503Z,1003.54
2017-01-11T10:51:27.440Z,1003.4
2017-01-11T10:52:36.681Z,1003.3
2017-01-11T10:53:45.605Z,1003.25
2017-01-11T10:54:54.543Z,1003.18
2017-01-11T10:56:03.473Z,1002.95
2017-01-11T10:57:12.412Z,1003.11
2017-01-11T10:58:21.363Z,1003.09
2017-01-11T10:59:30.298Z,1003.08
2017-01-11T11:00:39.225Z,1003
2017-01-11T11:01:48.199Z,1002.94
2017-01-11T11:02:57.139Z,1002.92
2017-01-11T11:04:06.255Z,1002.86
2017-01-11T11:05:15.180Z,1002.68
2017-01-11T11:06:24.110Z,1002.73
2017-01-11T11:07:33.289Z,1002.74
2017-01-11T11:08:42.231Z,1002.72
2017-01-11T11:09:51.158Z,1002.66
2017-01-11T11:11:00.085Z,1002.6
2017-01-11T11:12:09.008Z,1002.46
2017-01-11T11:13:17.956Z,1002.56
2017-01-11T11:14:26.912Z,1002.57
2017-01-11T11:15:35.839Z,1002.5
2017-01-11T11:16:44.774Z,1002.39
2017-01-11T11:17:53.692Z,1002.27
2017-01-11T11:19:02.633Z,1002.29
2017-01-11T11:20:11.568Z,1002.21
2017-01-11T11:21:20.528Z,1002.41
2017-01-11T11:22:29.457Z,1002.28
2017-01-11T11:23:38.543Z,1002.32
2017-01-11T11:24:47.483Z,1002.15
2017-01-11T11:25:56.411Z,1002.1
2017-01-11T11:27:05.350Z,1002.09
2017-01-11T11:28:14.267Z,1002.05
2017-01-11T11:29:23.205Z,1002.05
2017-01-11T11:30:32.127Z,1002.03
2017-01-11T11:31:41.046Z,1002.07
2017-01-11T11:32:49.982Z,1002.03
2017-01-11T11:33:58.922Z,1001.93
2017-01-11T11:35:07.853Z,1001.81
2017-01-11T11:36:16.782Z,1001.79
2017-01-11T11:37:25.705Z,1001.72
2017-01-11T11:38:34.639Z,1001.78
2017-01-11T11:39:43.566Z,1001.63
2017-01-11T11:40:52.502Z,1001.49
2017-01-11T11:42:01.432Z,1001.49
2017-01-11T11:43:10.370Z,1001.51
2017-01-11T11:44:19.300Z,1001.51
2017-01-11T11:45:28.399Z,1001.5
2017-01-11T11:46:37.327Z,1001.5
2017-01-11T11:47:46.261Z,1001.33
2017-01-11T11:48:55.189Z,1001.4
2017-01-11T11:50:04.118Z,1001.29
2017-01-11T11:51:13.069Z,1001.1
2017-01-11T11:52:22.009Z,1001.06
2017-01-11T11:53:31.084Z,1001.02
2017-01-11T11:54:42.327Z,1001.02
2017-01-11T11:55:51.377Z,1000.84
2017-01-11T11:57:00.307Z,1000.8
2017-01-11T11:58:09.255Z,1000.8
2017-01-11T11:59:18.179Z,1000.76
2017-01-11T12:00:27.100Z,1000.7
2017-01-11T12:01:36.033Z,1000.73
2017-01-11T12:02:45.335Z,1000.72
2017-01-11T18:30:16.481Z,994.79
2017-01-11T18:31:25.419Z,994.7
2017-01-11T18:32:34.453Z,994.71
2017-01-11T18:33:44.853Z,994.74
2017-01-11T18:34:53.813Z,994.71
2017-01-11T18:36:02.748Z,994.69
2017-01-11T18:37:11.680Z,994.67
2017-01-11T18:38:20.620Z,994.63
2017-01-11T18:39:29.539Z,994.7
2017-01-11T18:40:38.458Z,994.68
2017-01-11T18:41:47.398Z,994.7
2017-01-11T18:42:56.989Z,994.72
2017-01-11T18:44:05.937Z,994.7
2017-01-11T18:45:15.754Z,994.74
2017-01-11T18:46:25.410Z,994.68
2017-01-11T18:47:34.783Z,994.67
2017-01-11T18:48:43.729Z,994.69
2017-01-11T18:49:52.660Z,994.66
2017-01-11T18:51:01.610Z,994.69
2017-01-11T18:52:10.539Z,994.62
2017-01-11T18:53:19.467Z,994.59
2017-01-11T18:54:28.394Z,994.56
2017-01-11T18:55:37.327Z,994.59
2017-01-11T18:56:46.547Z,994.65
2017-01-11T18:57:55.487Z,994.61
2017-01-11T18:59:04.419Z,994.61
2017-01-11T19:00:13.355Z,994.69
2017-01-11T19:01:22.291Z,994.66
2017-01-11T19:02:31.221Z,994.76
2017-01-11T19:03:40.217Z,994.75
2017-01-11T19:04:49.155Z,994.77
2017-01-11T19:05:58.088Z,994.76
2017-01-11T19:07:07.025Z,994.78
2017-01-11T19:08:16.024Z,994.8
2017-01-11T19:09:26.000Z,994.84
2017-01-11T19:10:35.834Z,994.87
2017-01-11T19:11:45.913Z,994.84
2017-01-11T19:12:55.516Z,994.88
2017-01-11T19:14:05.003Z,994.91
2017-01-11T19:15:14.272Z,994.97
2017-01-11T19:16:23.299Z,994.92
2017-01-11T19:17:33.127Z,994.97
2017-01-11T19:18:42.086Z,994.96
2017-01-11T19:19:52.049Z,994.96
2017-01-11T19:21:02.467Z,994.99
2017-01-11T19:22:12.163Z,995.01
2017-01-11T19:23:21.139Z,994.99
2017-01-11T19:24:30.133Z,995.04
2017-01-11T19:25:39.234Z,995.03
2017-01-11T19:26:50.450Z,995.05
2017-01-11T19:27:59.515Z,995.15
2017-01-11T19:29:10.649Z,995.08
2017-01-11T19:30:19.702Z,995.08
2017-01-11T19:31:28.714Z,995.06
2017-01-11T19:32:37.666Z,995.15
2017-01-11T19:33:46.675Z,995.11
2017-01-11T19:34:55.635Z,995.12
2017-01-11T19:36:04.693Z,995.21
2017-01-11T19:37:13.661Z,995.22
2017-01-11T19:38:22.624Z,995.28
2017-01-11T19:39:31.580Z,995.28
2017-01-11T19:40:41.002Z,995.29
2017-01-11T19:41:49.539Z,995.25
2017-01-11T19:42:58.507Z,995.28
2017-01-11T19:44:07.499Z,995.27
2017-01-11T19:45:16.590Z,995.25
2017-01-11T19:46:25.538Z,995.33
2017-01-11T19:47:34.501Z,995.3
2017-01-11T19:48:43.556Z,995.34
2017-01-11T19:49:52.778Z,995.36
2017-01-11T19:51:01.938Z,995.38
2017-01-11T19:52:10.938Z,995.38
2017-01-11T19:53:20.259Z,995.39
2017-01-11T19:54:29.211Z,995.4
2017-01-11T19:55:38.320Z,995.37
2017-01-11T19:56:47.280Z,995.42
2017-01-11T19:57:56.254Z,995.37
2017-01-11T19:59:06.861Z,995.41
2017-01-11T20:00:15.846Z,995.46
2017-01-11T20:01:25.305Z,995.4
2017-01-11T20:02:34.340Z,995.39
2017-01-11T20:03:43.464Z,995.41
2017-01-11T20:04:52.784Z,995.42
2017-01-11T20:06:01.861Z,995.44
2017-01-11T20:07:10.847Z,995.44
2017-01-11T20:08:19.945Z,995.4
2017-01-11T20:09:29.228Z,995.45
2017-01-11T20:10:38.850Z,995.47
2017-01-11T20:11:48.013Z,995.43
2017-01-11T20:12:57.028Z,995.49
2017-01-11T20:14:06.003Z,995.5
2017-01-11T20:15:15.283Z,995.51
2017-01-11T20:16:24.219Z,995.47
2017-01-11T20:17:33.208Z,995.52
2017-01-11T20:18:42.243Z,995.51
2017-01-11T20:19:51.248Z,995.53
2017-01-11T20:21:00.208Z,995.6
2017-01-11T20:22:09.187Z,995.65
2017-01-11T20:23:18.131Z,995.68
2017-01-11T20:24:27.131Z,995.65
2017-01-11T20:25:36.125Z,995.65
2017-01-11T20:26:45.084Z,995.65
2017-01-11T20:27:54.007Z,995.72